createdAt,value
2022-09-02T00:01:31.330Z,57.94
2022-09-02T00:04:17.436Z,59.11
2022-09-02T00:06:45.971Z,58.19
2022-09-02T00:09:15.897Z,59.05
2022-09-02T00:11:45.162Z,59.47
2022-09-02T00:14:19.308Z,59.68
2022-09-02T00:16:51.039Z,60.71
2022-09-02T00:19:21.301Z,61.14
2022-09-02T00:21:49.053Z,60.17
2022-09-02T00:24:17.293Z,62.01
2022-09-02T00:26:45.345Z,62.73
2022-09-02T00:29:14.547Z,62.67
2022-09-02T00:31:44.006Z,63.50
2022-09-02T00:34:12.085Z,63.69
2022-09-02T00:36:39.395Z,63.56
2022-09-02T00:39:08.655Z,64.43
2022-09-02T00:41:41.913Z,64.85
2022-09-02T00:44:12.133Z,64.58
2022-09-02T00:46:40.283Z,63.92
2022-09-02T00:49:25.914Z,63.87
2022-09-02T00:52:01.093Z,62.96
2022-09-02T00:54:30.893Z,63.43
2022-09-02T00:57:00.157Z,64.48
2022-09-02T00:59:46.302Z,64.28
2022-09-02T01:02:13.704Z,64.94
2022-09-02T01:04:43.029Z,65.35
2022-09-02T01:07:10.202Z,65.60
2022-09-02T01:09:37.884Z,64.55
2022-09-02T01:12:05.475Z,65.14
2022-09-02T01:14:32.509Z,65.63
2022-09-02T01:17:01.833Z,65.51
2022-09-02T01:19:34.866Z,65.63
2022-09-02T01:22:02.201Z,65.43
2022-09-02T01:24:31.826Z,66.08
2022-09-02T01:26:59.382Z,66.12
2022-09-02T01:29:28.200Z,66.80
2022-09-02T01:31:55.825Z,66.70
2022-09-02T01:34:23.315Z,66.77
2022-09-02T01:36:51.100Z,67.11
2022-09-02T01:39:18.516Z,67.68
2022-09-02T01:41:45.822Z,67.24
2022-09-02T01:44:14.469Z,66.96
2022-09-02T01:46:42.212Z,68.11
2022-09-02T01:49:09.367Z,68.68
2022-09-02T01:51:37.735Z,69.44
2022-09-02T01:54:05.583Z,69.64
2022-09-02T01:56:32.640Z,69.16
2022-09-02T01:59:02.498Z,69.37
2022-09-02T02:01:29.653Z,70.05
2022-09-02T02:03:57.291Z,69.52
2022-09-02T02:06:25.159Z,70.24
2022-09-02T02:08:53.567Z,68.22
2022-09-02T02:11:24.803Z,69.26
2022-09-02T02:13:58.787Z,70.40
2022-09-02T02:16:26.439Z,69.69
2022-09-02T02:18:53.679Z,69.14
2022-09-02T02:21:20.978Z,68.47
2022-09-02T02:23:48.492Z,70.71
2022-09-02T02:26:15.691Z,71.09
2022-09-02T02:28:43.087Z,72.88
2022-09-02T02:31:10.676Z,72.41
2022-09-02T02:33:38.475Z,73.25
2022-09-02T02:36:07.639Z,74.25
2022-09-02T02:38:36.655Z,74.78
2022-09-02T02:41:06.356Z,74.62
2022-09-02T02:43:37.294Z,75.32
2022-09-02T02:46:05.617Z,75.11
2022-09-02T02:48:34.058Z,75.21
2022-09-02T02:51:01.544Z,75.26
2022-09-02T02:53:31.102Z,75.94
2022-09-02T02:55:59.479Z,76.68
2022-09-02T02:58:26.691Z,76.77
2022-09-02T03:00:57.772Z,76.53
2022-09-02T03:03:25.138Z,77.98
2022-09-02T03:05:54.655Z,78.43
2022-09-02T03:08:22.947Z,78.40
2022-09-02T03:10:55.545Z,79.19
2022-09-02T03:13:26.719Z,78.62
2022-09-02T03:15:56.863Z,78.40
2022-09-02T03:18:24.034Z,78.09
2022-09-02T03:20:51.620Z,78.86
2022-09-02T03:23:19.206Z,79.00
2022-09-02T03:25:49.294Z,79.03
2022-09-02T03:28:24.922Z,79.35
2022-09-02T03:30:52.506Z,79.16
2022-09-02T03:33:19.707Z,78.60
2022-09-02T03:35:47.398Z,78.32
2022-09-02T03:38:15.680Z,78.18
2022-09-02T03:40:43.598Z,77.84
2022-09-02T03:43:10.994Z,76.73
2022-09-02T03:45:41.628Z,76.51
2022-09-02T03:48:14.085Z,76.88
2022-09-02T03:50:44.763Z,77.78
2022-09-02T03:53:19.742Z,76.96
2022-09-02T03:55:50.591Z,77.42
2022-09-02T03:58:18.731Z,76.98
2022-09-02T04:00:51.694Z,77.19
2022-09-02T04:03:20.594Z,77.76
2022-09-02T04:05:49.518Z,77.99
2022-09-02T04:08:18.500Z,77.86
2022-09-02T04:10:46.296Z,76.83
2022-09-02T04:13:13.388Z,77.57
2022-09-02T04:15:44.316Z,77.06
2022-09-02T04:18:12.497Z,76.40
2022-09-02T04:20:40.454Z,77.47
2022-09-02T04:23:07.931Z,78.28
2022-09-02T04:25:40.644Z,77.95
2022-09-02T04:28:08.832Z,78.27
2022-09-02T04:30:39.302Z,78.19
2022-09-02T04:33:06.912Z,79.24
2022-09-02T04:35:35.955Z,78.70
2022-09-02T04:38:03.284Z,76.71
2022-09-02T04:40:31.507Z,77.06
2022-09-02T04:42:59.402Z,76.97
2022-09-02T04:45:29.767Z,77.73
2022-09-02T04:47:57.661Z,76.54
2022-09-02T04:50:25.158Z,77.59
2022-09-02T04:52:59.753Z,77.34
2022-09-02T04:55:28.053Z,77.51
2022-09-02T04:57:56.028Z,77.81
2022-09-02T05:00:23.227Z,77.67
2022-09-02T05:02:50.598Z,78.00
2022-09-02T05:05:18.668Z,78.47
2022-09-02T05:07:46.427Z,77.80
2022-09-02T05:10:15.928Z,77.53
2022-09-02T05:12:44.300Z,77.26
2022-09-02T05:15:12.938Z,77.35
2022-09-02T05:17:40.321Z,78.08
2022-09-02T05:20:09.754Z,76.76
2022-09-02T05:22:37.775Z,77.48
2022-09-02T05:25:08.731Z,77.01
2022-09-02T05:27:36.546Z,76.89
2022-09-02T05:30:05.135Z,77.24
2022-09-02T05:32:37.819Z,76.83
2022-09-02T05:35:06.334Z,76.77
2022-09-02T05:37:35.562Z,76.42
2022-09-02T05:40:05.370Z,75.81
2022-09-02T05:42:34.678Z,77.24
2022-09-02T05:45:01.854Z,76.61
2022-09-02T05:47:28.947Z,75.53
2022-09-02T05:49:56.813Z,75.23
2022-09-02T05:52:26.047Z,75.78
2022-09-02T05:54:55.322Z,75.08
2022-09-02T05:57:23.799Z,75.20
2022-09-02T05:59:58.306Z,75.10
2022-09-02T06:02:41.500Z,74.91
2022-09-02T06:05:12.301Z,74.81
2022-09-02T06:07:44.283Z,74.87
2022-09-02T06:10:13.013Z,73.19
2022-09-02T06:12:42.715Z,72.42
2022-09-02T06:15:11.007Z,71.86
2022-09-02T06:17:40.445Z,72.17
2022-09-02T06:20:11.301Z,70.46
2022-09-02T06:22:41.025Z,70.46
2022-09-02T06:25:08.755Z,69.82
2022-09-02T06:27:38.149Z,68.35
2022-09-02T06:30:05.754Z,68.45
2022-09-02T06:32:33.048Z,66.30
2022-09-02T06:35:04.657Z,65.99
2022-09-02T06:37:34.998Z,65.18
2022-09-02T06:40:04.989Z,64.04
2022-09-02T06:42:32.872Z,63.75
2022-09-02T06:45:08.746Z,63.83
2022-09-02T06:47:37.926Z,65.51
2022-09-02T06:50:05.500Z,63.40
2022-09-02T06:52:32.909Z,62.83
2022-09-02T06:55:01.029Z,62.08
2022-09-02T06:57:31.422Z,61.91
2022-09-02T07:00:07.944Z,61.55
2022-09-02T07:02:36.382Z,61.00
2022-09-02T07:05:11.160Z,61.58
2022-09-02T07:07:40.922Z,60.92
2022-09-02T07:10:13.605Z,59.41
2022-09-02T07:12:44.604Z,59.51
2022-09-02T07:15:15.160Z,58.81
2022-09-02T07:17:43.617Z,58.83
2022-09-02T07:20:16.365Z,58.11
2022-09-02T07:25:25.447Z,57.41
2022-09-02T07:27:54.510Z,56.69
2022-09-02T07:30:23.070Z,56.20
2022-09-02T07:32:57.085Z,56.00
2022-09-02T07:35:26.656Z,55.78
2022-09-02T07:37:54.590Z,55.35
2022-09-02T07:40:23.492Z,56.46
2022-09-02T07:42:51.879Z,55.53
2022-09-02T07:45:20.673Z,56.03
2022-09-02T07:47:49.436Z,55.21
2022-09-02T07:50:20.752Z,56.07
2022-09-02T07:52:54.768Z,55.45
2022-09-02T07:55:23.339Z,55.39
2022-09-02T07:57:52.328Z,55.16
2022-09-02T08:00:23.024Z,55.33
2022-09-02T08:02:52.104Z,54.58
2022-09-02T08:05:26.556Z,55.78
2022-09-02T08:07:53.673Z,54.02
2022-09-02T08:10:21.338Z,53.84
2022-09-02T08:12:48.360Z,53.01
2022-09-02T08:15:16.347Z,53.06
2022-09-02T08:17:44.400Z,52.79
2022-09-02T08:20:13.098Z,52.23
2022-09-02T08:22:40.916Z,52.82
2022-09-02T08:25:08.429Z,52.99
2022-09-02T08:27:37.244Z,52.85
2022-09-02T08:30:06.599Z,52.69
2022-09-02T08:32:33.617Z,52.68
2022-09-02T08:35:02.876Z,52.71
2022-09-02T08:37:34.257Z,53.29
2022-09-02T08:40:06.533Z,52.57
2022-09-02T08:42:39.214Z,51.87
2022-09-02T08:45:14.172Z,51.61
2022-09-02T08:47:45.169Z,51.36
2022-09-02T08:50:15.899Z,51.27
2022-09-02T08:52:45.599Z,50.95
2022-09-02T08:55:21.459Z,50.58
2022-09-02T08:57:49.619Z,50.34
2022-09-02T09:00:17.329Z,49.02
2022-09-02T09:03:28.758Z,48.93
2022-09-02T09:06:16.959Z,48.47
2022-09-02T09:08:55.597Z,47.47
2022-09-02T09:11:44.886Z,45.90
2022-09-02T09:14:48.007Z,46.61
2022-09-02T09:17:39.517Z,46.50
2022-09-02T09:20:16.201Z,46.31
2022-09-02T09:22:43.713Z,46.22
2022-09-02T09:25:15.309Z,45.78
2022-09-02T09:27:46.012Z,46.58
2022-09-02T09:30:15.566Z,47.02
2022-09-02T09:32:47.668Z,47.27
2022-09-02T09:35:18.718Z,46.98
2022-09-02T09:37:48.337Z,47.18
2022-09-02T09:40:21.980Z,47.34
2022-09-02T09:42:56.748Z,46.84
2022-09-02T09:45:35.725Z,46.27
2022-09-02T09:48:18.301Z,46.21
2022-09-02T09:50:55.132Z,45.87
2022-09-02T09:53:23.992Z,45.11
2022-09-02T09:55:58.481Z,44.76
2022-09-02T09:58:32.247Z,44.56
2022-09-02T10:01:10.847Z,45.07
2022-09-02T10:03:43.018Z,43.94
2022-09-02T10:06:36.314Z,43.35
2022-09-02T10:09:18.662Z,43.91
2022-09-02T10:11:57.322Z,43.19
2022-09-02T10:14:31.154Z,43.18
2022-09-02T10:17:26.754Z,43.30
2022-09-02T10:20:07.997Z,42.36
2022-09-02T10:23:00.025Z,42.66
2022-09-02T10:25:49.095Z,43.44
2022-09-02T10:28:53.759Z,42.71
2022-09-02T10:31:26.632Z,41.95
2022-09-02T10:34:23.081Z,40.84
2022-09-02T10:37:07.172Z,41.26
2022-09-02T10:39:53.065Z,40.33
2022-09-02T10:42:34.675Z,39.52
2022-09-02T10:45:16.393Z,39.91
2022-09-02T10:47:54.366Z,40.21
2022-09-02T10:50:49.550Z,38.63
2022-09-02T10:53:31.571Z,37.12
2022-09-02T10:56:21.430Z,37.25
2022-09-02T10:59:01.464Z,37.06
2022-09-02T11:01:54.804Z,37.38
2022-09-02T11:05:01.230Z,38.06
2022-09-02T11:07:40.984Z,38.41
2022-09-02T11:10:19.809Z,37.29
2022-09-02T11:12:52.859Z,36.00
2022-09-02T11:15:29.551Z,37.93
2022-09-02T11:18:35.632Z,37.47
2022-09-02T11:21:10.360Z,37.54
2022-09-02T11:23:40.099Z,37.59
2022-09-02T11:26:28.229Z,38.73
2022-09-02T11:29:15.469Z,37.38
2022-09-02T11:32:10.308Z,37.30
2022-09-02T11:34:43.123Z,37.17
2022-09-02T11:38:05.789Z,35.63
2022-09-02T11:44:14.651Z,35.10
2022-09-02T11:46:54.934Z,35.12
2022-09-02T11:49:33.053Z,35.54
2022-09-02T11:52:29.157Z,36.00
2022-09-02T11:55:11.149Z,36.49
2022-09-02T11:57:41.372Z,36.24
2022-09-02T12:00:31.625Z,36.48
2022-09-02T12:03:11.943Z,36.63
2022-09-02T12:06:04.248Z,37.59
2022-09-02T12:08:35.316Z,37.98
2022-09-02T12:11:06.008Z,37.07
2022-09-02T12:16:21.054Z,38.58
2022-09-02T12:18:54.168Z,38.72
2022-09-02T12:21:23.460Z,39.01
2022-09-02T12:23:56.930Z,38.33
2022-09-02T12:26:36.023Z,38.04
2022-09-02T12:29:29.785Z,37.75
2022-09-02T12:31:57.298Z,37.81
2022-09-02T12:34:24.265Z,36.95
2022-09-02T12:37:03.534Z,37.35
2022-09-02T12:39:35.190Z,37.13
2022-09-02T12:42:06.827Z,36.65
2022-09-02T12:44:53.995Z,37.22
2022-09-02T12:47:32.305Z,37.11
2022-09-02T12:50:17.347Z,36.92
2022-09-02T12:52:49.482Z,37.13
2022-09-02T12:55:16.692Z,36.79
2022-09-02T12:57:52.943Z,38.48
2022-09-02T13:00:27.569Z,36.93
2022-09-02T13:03:09.500Z,36.80
2022-09-02T13:05:58.262Z,37.35
2022-09-02T13:09:12.400Z,37.52
2022-09-02T13:12:17.342Z,37.92
2022-09-02T13:14:44.359Z,38.13
2022-09-02T13:17:36.769Z,37.45
2022-09-02T13:20:14.504Z,36.88
2022-09-02T13:23:10.871Z,36.34
2022-09-02T13:26:22.828Z,37.28
2022-09-02T13:29:22.024Z,36.81
2022-09-02T13:32:13.149Z,37.02
2022-09-02T13:34:44.497Z,37.19
2022-09-02T13:37:33.779Z,36.85
2022-09-02T13:40:06.790Z,36.08
2022-09-02T13:42:34.006Z,37.06
2022-09-02T13:45:12.098Z,36.78
2022-09-02T13:47:43.530Z,36.04
2022-09-02T13:50:14.747Z,36.03
2022-09-02T13:53:46.004Z,35.60
2022-09-02T13:55:31.873Z,35.89
2022-09-02T13:58:03.741Z,36.35
2022-09-02T14:00:39.854Z,35.80
2022-09-02T14:03:11.863Z,35.37
2022-09-02T14:05:47.378Z,35.11
2022-09-02T14:08:18.592Z,36.49
2022-09-02T14:10:49.156Z,35.99
2022-09-02T14:13:16.988Z,36.25
2022-09-02T14:15:45.031Z,36.24
2022-09-02T14:18:23.057Z,35.83
2022-09-02T14:21:19.086Z,37.67
2022-09-02T14:23:52.884Z,35.75
2022-09-02T14:26:28.436Z,36.46
2022-09-02T14:28:55.662Z,35.10
2022-09-02T14:31:26.692Z,35.86
2022-09-02T14:33:53.747Z,35.94
2022-09-02T14:36:21.311Z,35.94
2022-09-02T14:38:48.345Z,35.66
2022-09-02T14:41:18.287Z,35.38
2022-09-02T14:43:54.903Z,35.68
2022-09-02T14:46:27.003Z,36.37
2022-09-02T14:49:02.517Z,35.40
2022-09-02T14:51:43.797Z,35.57
2022-09-02T14:54:11.416Z,35.49
2022-09-02T14:56:47.049Z,36.00
2022-09-02T14:59:14.304Z,35.23
2022-09-02T15:01:46.696Z,35.48
2022-09-02T15:04:14.689Z,35.71
2022-09-02T15:06:45.140Z,35.75
2022-09-02T15:09:16.505Z,35.82
2022-09-02T15:11:49.058Z,35.57
2022-09-02T15:14:16.326Z,35.23
2022-09-02T15:16:43.383Z,35.46
2022-09-02T15:19:10.695Z,35.36
2022-09-02T15:21:37.786Z,35.01
2022-09-02T15:24:05.845Z,34.39
2022-09-02T15:26:32.871Z,35.23
2022-09-02T15:29:00.146Z,35.23
2022-09-02T15:31:27.224Z,35.71
2022-09-02T15:33:54.370Z,35.36
2022-09-02T15:36:21.597Z,36.22
2022-09-02T15:38:49.050Z,34.84
2022-09-02T15:41:18.899Z,33.93
2022-09-02T15:43:47.630Z,33.50
2022-09-02T15:46:30.636Z,32.86
2022-09-02T15:49:02.842Z,32.05
2022-09-02T15:51:30.781Z,30.82
2022-09-02T15:54:03.670Z,30.12
2022-09-02T15:56:32.618Z,29.43
2022-09-02T15:59:09.356Z,27.62
2022-09-02T16:01:42.153Z,28.40
2022-09-02T16:04:11.109Z,27.58
2022-09-02T16:06:40.710Z,27.98
2022-09-02T16:09:10.072Z,27.62
2022-09-02T16:11:42.278Z,27.09
2022-09-02T16:14:09.486Z,27.57
2022-09-02T16:16:37.405Z,26.63
2022-09-02T16:19:07.068Z,27.61
2022-09-02T16:21:35.205Z,28.18
2022-09-02T16:24:02.464Z,27.07
2022-09-02T16:26:34.967Z,26.54
2022-09-02T16:29:03.991Z,25.65
2022-09-02T16:31:32.563Z,25.06
2022-09-02T16:34:05.432Z,24.79
2022-09-02T16:36:34.603Z,23.60
2022-09-02T16:39:03.112Z,24.35
2022-09-02T16:41:35.774Z,24.65
2022-09-02T16:44:08.317Z,24.04
2022-09-02T16:46:36.210Z,25.14
2022-09-02T16:49:03.946Z,24.54
2022-09-02T16:51:31.077Z,25.02
2022-09-02T16:54:00.476Z,25.08
2022-09-02T16:56:28.189Z,24.69
2022-09-02T16:58:55.265Z,24.75
2022-09-02T17:01:23.250Z,24.74
2022-09-02T17:03:50.703Z,24.72
2022-09-02T17:06:18.486Z,25.17
2022-09-02T17:08:45.611Z,24.86
2022-09-02T17:11:25.877Z,24.78
2022-09-02T17:13:59.262Z,26.63
2022-09-02T17:16:30.638Z,28.37
2022-09-02T17:18:58.158Z,31.12
2022-09-02T17:21:45.106Z,31.96
2022-09-02T17:24:13.817Z,32.75
2022-09-02T17:26:43.507Z,33.41
2022-09-02T17:29:31.614Z,33.91
2022-09-02T17:32:00.395Z,34.61
2022-09-02T17:34:27.445Z,35.08
2022-09-02T17:36:54.495Z,34.51
2022-09-02T17:39:21.765Z,35.22
2022-09-02T17:41:54.513Z,35.98
2022-09-02T17:44:23.979Z,35.44
2022-09-02T17:46:51.540Z,36.03
2022-09-02T17:49:19.161Z,36.94
2022-09-02T17:51:47.322Z,36.55
2022-09-02T17:54:15.120Z,36.11
2022-09-02T17:56:54.728Z,36.64
2022-09-02T17:59:43.549Z,36.73
2022-09-02T18:02:37.974Z,37.64
2022-09-02T18:05:19.684Z,38.24
2022-09-02T18:07:50.726Z,39.03
2022-09-02T18:10:17.995Z,39.63
2022-09-02T18:12:45.031Z,39.87
2022-09-02T18:15:18.623Z,40.38
2022-09-02T18:17:49.960Z,40.62
2022-09-02T18:20:36.144Z,41.14
2022-09-02T18:23:22.629Z,41.46
2022-09-02T18:26:17.561Z,42.55
2022-09-02T18:29:06.439Z,42.81
2022-09-02T18:31:47.012Z,42.07
2022-09-02T18:34:20.977Z,42.54
2022-09-02T18:37:13.538Z,43.08
2022-09-02T18:40:04.425Z,43.13
2022-09-02T18:42:37.695Z,43.53
2022-09-02T18:45:28.180Z,44.25
2022-09-02T18:48:01.357Z,44.05
2022-09-02T18:50:50.921Z,44.54
2022-09-02T18:53:22.258Z,45.04
2022-09-02T18:55:52.019Z,44.57
2022-09-02T18:58:41.035Z,45.49
2022-09-02T19:01:19.078Z,45.05
2022-09-02T19:03:46.278Z,46.20
2022-09-02T19:06:25.441Z,46.37
2022-09-02T19:09:05.469Z,46.24
2022-09-02T19:11:35.602Z,46.24
2022-09-02T19:14:08.361Z,46.39
2022-09-02T19:16:38.829Z,47.59
2022-09-02T19:19:10.388Z,46.72
2022-09-02T19:21:51.621Z,47.45
2022-09-02T19:24:28.423Z,47.15
2022-09-02T19:27:03.786Z,48.24
2022-09-02T19:29:33.947Z,48.50
2022-09-02T19:32:01.274Z,47.91
2022-09-02T19:34:33.903Z,48.54
2022-09-02T19:37:01.518Z,48.43
2022-09-02T19:39:28.577Z,48.61
2022-09-02T19:41:55.673Z,49.74
2022-09-02T19:44:22.720Z,49.75
2022-09-02T19:47:42.157Z,49.98
2022-09-02T19:49:36.809Z,50.34
2022-09-02T19:52:04.058Z,50.01
2022-09-02T19:54:31.298Z,50.44
2022-09-02T19:56:58.350Z,50.50
2022-09-02T19:59:26.580Z,51.06
2022-09-02T20:01:53.883Z,50.82
2022-09-02T20:04:20.977Z,52.45
2022-09-02T20:06:48.068Z,52.17
2022-09-02T20:09:15.134Z,52.63
2022-09-02T20:11:44.219Z,51.74
2022-09-02T20:14:11.404Z,51.93
2022-09-02T20:16:38.654Z,52.37
2022-09-02T20:19:05.786Z,51.86
2022-09-02T20:21:42.213Z,52.33
2022-09-02T20:24:11.745Z,52.79
2022-09-02T20:26:52.184Z,53.32
2022-09-02T20:29:22.829Z,53.91
2022-09-02T20:32:29.706Z,54.33
2022-09-02T20:35:03.159Z,54.72
2022-09-02T20:37:54.250Z,54.97
2022-09-02T20:40:54.640Z,55.90
2022-09-02T20:43:47.230Z,56.82
2022-09-02T20:46:38.421Z,55.91
2022-09-02T20:49:13.009Z,56.43
2022-09-02T20:51:53.914Z,56.75
2022-09-02T20:54:35.575Z,56.73
2022-09-02T20:57:28.465Z,56.86
2022-09-02T21:00:12.307Z,58.20
2022-09-02T21:02:51.143Z,57.69
2022-09-02T21:05:24.746Z,57.95
2022-09-02T21:08:01.363Z,58.10
2022-09-02T21:10:45.974Z,58.36
2022-09-02T21:13:31.669Z,57.89
2022-09-02T21:16:08.991Z,58.46
2022-09-02T21:18:41.971Z,58.85
2022-09-02T21:21:25.016Z,59.41
2022-09-02T21:23:57.507Z,59.52
2022-09-02T21:26:49.357Z,59.99
2022-09-02T21:29:45.338Z,59.98
2022-09-02T21:32:21.217Z,60.82
2022-09-02T21:34:56.554Z,60.55
2022-09-02T21:37:26.576Z,60.94
2022-09-02T21:39:58.728Z,61.13
2022-09-02T21:42:45.247Z,61.74
2022-09-02T21:45:22.913Z,62.35
2022-09-02T21:48:10.198Z,62.69
2022-09-02T21:50:57.930Z,62.58
2022-09-02T21:53:57.078Z,62.95
2022-09-02T21:56:47.143Z,62.26
2022-09-02T21:59:34.447Z,62.30
2022-09-02T22:02:14.809Z,62.82
2022-09-02T22:04:59.178Z,63.32
2022-09-02T22:08:11.157Z,63.18
2022-09-02T22:11:14.994Z,62.42
2022-09-02T22:13:42.248Z,62.94
2022-09-02T22:16:45.727Z,62.23
2022-09-02T22:19:13.518Z,63.21
2022-09-02T22:21:49.210Z,62.38
2022-09-02T22:24:22.802Z,62.55
2022-09-02T22:26:55.431Z,63.80
2022-09-02T22:29:36.463Z,63.67
2022-09-02T22:32:08.911Z,63.40
2022-09-02T22:34:49.483Z,64.39
2022-09-02T22:37:23.924Z,64.64
2022-09-02T22:39:53.946Z,63.87
2022-09-02T22:42:35.973Z,63.60
2022-09-02T22:45:24.626Z,64.49
2022-09-02T22:48:17.458Z,65.48
2022-09-02T22:51:14.094Z,65.58
2022-09-02T22:53:45.950Z,65.98
2022-09-02T22:56:21.422Z,66.21
2022-09-02T22:59:01.487Z,66.85
2022-09-02T23:01:45.212Z,66.65
2022-09-02T23:04:32.488Z,66.44
2022-09-02T23:07:05.490Z,66.02
2022-09-02T23:09:33.820Z,66.16
2022-09-02T23:12:16.039Z,65.16
2022-09-02T23:14:59.853Z,65.93
2022-09-02T23:17:39.732Z,66.68
2022-09-02T23:20:10.471Z,66.14
2022-09-02T23:23:22.756Z,65.68
2022-09-02T23:26:09.611Z,65.97
2022-09-02T23:29:01.254Z,65.21
2022-09-02T23:31:47.414Z,65.72
2022-09-02T23:34:28.045Z,65.48
2022-09-02T23:37:04.529Z,65.86
2022-09-02T23:39:56.506Z,66.68
2022-09-02T23:42:24.674Z,66.08
2022-09-02T23:44:59.154Z,65.56
2022-09-02T23:47:39.928Z,66.25
2022-09-02T23:50:21.434Z,66.71
2022-09-02T23:53:02.895Z,66.83
2022-09-02T23:55:43.733Z,67.07
2022-09-02T23:58:34.511Z,68.20
